createdAt,value
2022-09-10T00:01:06.976Z,7.88
2022-09-10T00:03:54.790Z,7.85
2022-09-10T00:06:41.602Z,7.93
2022-09-10T00:09:27.167Z,8.25
2022-09-10T00:12:13.528Z,7.50
2022-09-10T00:14:59.210Z,8.30
2022-09-10T00:17:45.125Z,8.13
2022-09-10T00:20:31.244Z,8.02
2022-09-10T00:23:19.131Z,7.65
2022-09-10T00:26:15.133Z,8.75
2022-09-10T00:29:01.670Z,9.10
2022-09-10T00:31:47.430Z,9.20
2022-09-10T00:34:33.265Z,8.10
2022-09-10T00:37:19.185Z,8.52
2022-09-10T00:40:05.685Z,8.60
2022-09-10T00:42:51.636Z,8.23
2022-09-10T00:45:37.750Z,8.18
2022-09-10T00:48:30.995Z,8.73
2022-09-10T00:51:16.861Z,8.37
2022-09-10T00:54:03.317Z,8.90
2022-09-10T00:56:49.778Z,7.75
2022-09-10T00:59:36.077Z,8.07
2022-09-10T01:02:22.088Z,8.20
2022-09-10T01:05:09.940Z,7.90
2022-09-10T01:07:58.031Z,8.55
2022-09-10T01:11:09.100Z,9.00
2022-09-10T01:14:28.811Z,9.93
2022-09-10T01:17:21.253Z,10.02
2022-09-10T01:20:32.453Z,11.20
2022-09-10T01:23:41.405Z,10.65
2022-09-10T01:26:42.715Z,10.63
2022-09-10T01:29:44.575Z,11.90
2022-09-10T01:32:40.649Z,10.60
2022-09-10T01:35:50.084Z,10.48
2022-09-10T01:38:44.207Z,10.55
2022-09-10T01:41:31.454Z,10.82
2022-09-10T01:44:43.905Z,9.85
2022-09-10T01:47:54.466Z,10.32
2022-09-10T01:51:17.877Z,9.55
2022-09-10T01:54:37.166Z,10.32
2022-09-10T01:57:23.308Z,10.45
2022-09-10T02:00:11.586Z,10.25
2022-09-10T02:03:05.910Z,10.02
2022-09-10T02:05:54.944Z,9.50
2022-09-10T02:08:41.883Z,8.50
2022-09-10T02:11:29.242Z,9.63
2022-09-10T02:14:21.708Z,8.85
2022-09-10T02:17:31.863Z,8.43
2022-09-10T02:20:19.500Z,8.88
2022-09-10T02:23:05.449Z,9.27
2022-09-10T02:25:51.392Z,9.48
2022-09-10T02:28:37.764Z,10.00
2022-09-10T02:31:23.966Z,12.20
2022-09-10T02:34:10.809Z,11.50
2022-09-10T02:36:57.654Z,10.85
2022-09-10T02:39:45.477Z,9.80
2022-09-10T02:42:35.001Z,9.70
2022-09-10T02:45:21.387Z,9.27
2022-09-10T02:48:07.605Z,10.48
2022-09-10T02:50:54.692Z,9.45
2022-09-10T02:53:40.774Z,8.98
2022-09-10T02:56:27.506Z,8.80
2022-09-10T02:59:13.272Z,9.27
2022-09-10T03:02:00.126Z,9.38
2022-09-10T03:04:46.590Z,9.35
2022-09-10T03:07:33.101Z,10.10
2022-09-10T03:10:19.606Z,9.48
2022-09-10T03:13:05.389Z,9.88
2022-09-10T03:15:52.888Z,9.13
2022-09-10T03:18:40.519Z,9.38
2022-09-10T03:21:29.415Z,9.48
2022-09-10T03:24:16.992Z,9.57
2022-09-10T03:27:04.315Z,10.55
2022-09-10T03:29:50.054Z,10.88
2022-09-10T03:32:37.303Z,9.98
2022-09-10T03:35:25.368Z,11.50
2022-09-10T03:38:11.833Z,11.65
2022-09-10T03:40:58.701Z,10.38
2022-09-10T03:43:46.837Z,11.15
2022-09-10T03:46:34.252Z,11.25
2022-09-10T03:49:22.935Z,10.57
2022-09-10T03:52:12.676Z,11.52
2022-09-10T03:55:00.496Z,10.50
2022-09-10T03:57:47.274Z,10.85
2022-09-10T04:00:34.609Z,11.15
2022-09-10T04:03:20.704Z,11.38
2022-09-10T04:06:10.417Z,12.32
2022-09-10T04:08:56.717Z,11.40
2022-09-10T04:11:42.771Z,10.75
2022-09-10T04:14:29.968Z,10.93
2022-09-10T04:17:15.803Z,11.13
2022-09-10T04:20:03.497Z,10.80
2022-09-10T04:22:53.699Z,10.95
2022-09-10T04:25:39.833Z,10.82
2022-09-10T04:28:26.333Z,10.15
2022-09-10T04:31:13.464Z,9.85
2022-09-10T04:34:03.125Z,14.05
2022-09-10T04:36:53.647Z,10.43
2022-09-10T04:39:40.319Z,9.95
2022-09-10T04:42:26.399Z,9.98
2022-09-10T04:45:13.011Z,10.07
2022-09-10T04:48:04.827Z,12.15
2022-09-10T04:51:17.423Z,10.02
2022-09-10T04:54:08.038Z,10.27
2022-09-10T04:56:57.005Z,8.85
2022-09-10T04:59:43.497Z,10.35
2022-09-10T05:02:30.299Z,10.30
2022-09-10T05:05:16.410Z,9.63
2022-09-10T05:08:05.069Z,9.90
2022-09-10T05:10:50.856Z,9.77
2022-09-10T05:13:36.976Z,9.63
2022-09-10T05:16:24.022Z,11.10
2022-09-10T05:19:22.753Z,9.98
2022-09-10T05:22:14.702Z,10.93
2022-09-10T05:25:01.727Z,10.57
2022-09-10T05:27:48.361Z,10.32
2022-09-10T05:30:38.436Z,10.55
2022-09-10T05:33:25.135Z,10.30
2022-09-10T05:36:11.659Z,10.20
2022-09-10T05:39:00.391Z,10.50
2022-09-10T05:41:48.934Z,10.23
2022-09-10T05:44:35.252Z,10.40
2022-09-10T05:47:22.240Z,10.88
2022-09-10T05:50:08.710Z,10.82
2022-09-10T05:52:57.135Z,11.57
2022-09-10T05:55:46.139Z,10.68
2022-09-10T05:58:34.512Z,11.68
2022-09-10T06:01:20.717Z,12.40
2022-09-10T06:04:07.028Z,12.75
2022-09-10T06:06:54.276Z,12.73
2022-09-10T06:09:40.190Z,12.43
2022-09-10T06:12:46.429Z,12.68
2022-09-10T06:15:35.898Z,11.93
2022-09-10T06:18:22.468Z,10.85
2022-09-10T06:21:14.420Z,11.85
2022-09-10T06:24:02.296Z,13.13
2022-09-10T06:26:51.997Z,11.13
2022-09-10T06:29:40.183Z,11.50
2022-09-10T06:32:27.982Z,10.80
2022-09-10T06:35:14.106Z,10.55
2022-09-10T06:38:00.169Z,10.88
2022-09-10T06:40:57.870Z,10.40
2022-09-10T06:44:22.466Z,10.13
2022-09-10T06:48:37.546Z,8.80
2022-09-10T06:51:13.713Z,8.80
2022-09-10T06:54:02.837Z,8.02
2022-09-10T06:56:49.549Z,8.15
2022-09-10T06:59:35.398Z,7.50
2022-09-10T07:02:21.684Z,13.18
2022-09-10T07:05:10.935Z,12.95
2022-09-10T07:07:57.983Z,10.73
2022-09-10T07:10:45.849Z,8.77
2022-09-10T07:13:34.846Z,8.05
2022-09-10T07:17:31.116Z,7.43
2022-09-10T07:20:18.053Z,7.22
2022-09-10T07:23:08.902Z,6.32
2022-09-10T07:26:19.721Z,6.25
2022-09-10T07:29:36.606Z,5.32
2022-09-10T07:33:39.198Z,5.47
2022-09-10T07:36:25.649Z,5.10
2022-09-10T07:39:24.928Z,10.40
2022-09-10T07:42:11.849Z,6.18
2022-09-10T07:49:58.553Z,5.18
2022-09-10T07:52:52.891Z,5.38
2022-09-10T07:55:41.424Z,5.35
2022-09-10T07:59:02.718Z,6.10
2022-09-10T08:02:02.954Z,5.95
2022-09-10T08:04:49.609Z,5.50
2022-09-10T08:07:58.641Z,4.97
2022-09-10T08:10:47.182Z,5.30
2022-09-10T08:13:37.325Z,6.15
2022-09-10T08:16:24.830Z,6.82
2022-09-10T08:19:14.998Z,6.00
2022-09-10T08:22:01.438Z,4.82
2022-09-10T08:24:53.501Z,5.40
2022-09-10T08:27:42.787Z,5.18
2022-09-10T08:30:29.021Z,4.90
2022-09-10T08:33:16.794Z,4.75
2022-09-10T08:36:04.809Z,7.28
2022-09-10T08:38:51.242Z,10.43
2022-09-10T08:41:41.072Z,5.95
2022-09-10T08:45:00.329Z,5.13
2022-09-10T08:48:19.483Z,6.10
2022-09-10T08:51:29.260Z,4.95
2022-09-10T08:54:26.957Z,4.28
2022-09-10T08:57:36.895Z,5.80
2022-09-10T09:00:45.680Z,5.40
2022-09-10T09:03:39.020Z,4.72
2022-09-10T09:06:36.261Z,7.68
2022-09-10T09:09:22.473Z,4.78
2022-09-10T09:13:08.142Z,4.07
2022-09-10T09:16:38.819Z,5.75
2022-09-10T09:19:34.682Z,4.40
2022-09-10T09:22:53.947Z,4.07
2022-09-10T09:26:29.882Z,3.30
2022-09-10T09:29:42.412Z,4.20
2022-09-10T09:33:48.200Z,5.28
2022-09-10T09:36:37.984Z,4.82
2022-09-10T09:40:07.143Z,5.22
2022-09-10T09:43:05.172Z,4.45
2022-09-10T09:45:53.494Z,4.07
2022-09-10T09:48:53.620Z,4.22
2022-09-10T09:52:31.889Z,4.20
2022-09-10T09:55:33.006Z,4.28
2022-09-10T09:58:21.866Z,3.97
2022-09-10T10:01:13.281Z,3.88
2022-09-10T10:04:02.911Z,4.00
2022-09-10T10:06:57.873Z,4.15
2022-09-10T10:09:44.414Z,4.32
2022-09-10T10:12:31.757Z,5.95
2022-09-10T10:15:36.663Z,3.92
2022-09-10T10:18:22.691Z,3.72
2022-09-10T10:21:11.473Z,3.22
2022-09-10T10:23:57.235Z,3.58
2022-09-10T10:26:45.755Z,4.28
2022-09-10T10:29:31.760Z,3.92
2022-09-10T10:32:19.782Z,4.30
2022-09-10T10:35:27.092Z,3.15
2022-09-10T10:38:34.562Z,4.38
2022-09-10T10:41:45.329Z,4.40
2022-09-10T10:44:56.451Z,4.45
2022-09-10T10:47:55.066Z,4.13
2022-09-10T10:50:52.939Z,3.95
2022-09-10T10:54:22.829Z,4.15
2022-09-10T10:57:54.578Z,4.43
2022-09-10T11:00:44.176Z,4.43
2022-09-10T11:03:53.034Z,5.15
2022-09-10T11:06:45.438Z,4.20
2022-09-10T11:09:41.033Z,3.22
2022-09-10T11:12:41.970Z,3.28
2022-09-10T11:16:05.834Z,3.40
2022-09-10T11:19:32.146Z,3.55
2022-09-10T11:22:22.831Z,3.20
2022-09-10T11:25:37.886Z,5.00
2022-09-10T11:29:08.923Z,6.43
2022-09-10T11:32:27.180Z,3.88
2022-09-10T11:35:29.238Z,3.78
2022-09-10T11:38:57.559Z,4.55
2022-09-10T11:41:46.951Z,4.00
2022-09-10T11:45:03.624Z,3.97
2022-09-10T11:48:11.589Z,4.18
2022-09-10T11:51:25.882Z,3.20
2022-09-10T11:54:17.013Z,3.38
2022-09-10T11:57:25.480Z,3.80
2022-09-10T12:00:17.172Z,3.63
2022-09-10T12:03:37.001Z,3.88
2022-09-10T12:06:39.525Z,3.15
2022-09-10T12:10:30.857Z,2.60
2022-09-10T12:13:24.262Z,4.50
2022-09-10T12:19:50.158Z,2.90
2022-09-10T12:22:39.046Z,3.67
2022-09-10T12:25:37.636Z,2.97
2022-09-10T12:28:45.860Z,3.17
2022-09-10T12:32:23.943Z,2.40
2022-09-10T12:36:21.147Z,3.17
2022-09-10T12:39:29.301Z,2.80
2022-09-10T12:42:29.961Z,2.42
2022-09-10T12:46:12.648Z,3.40
2022-09-10T12:49:10.046Z,2.83
2022-09-10T12:53:01.804Z,2.13
2022-09-10T12:56:29.927Z,3.10
2022-09-10T12:59:27.181Z,2.38
2022-09-10T13:02:27.947Z,2.65
2022-09-10T13:05:36.693Z,5.07
2022-09-10T13:08:34.815Z,3.08
2022-09-10T13:11:24.771Z,2.50
2022-09-10T13:14:24.706Z,2.20
2022-09-10T13:17:48.340Z,3.17
2022-09-10T13:20:35.597Z,2.47
2022-09-10T13:23:47.673Z,2.13
2022-09-10T13:27:53.514Z,2.22
2022-09-10T13:31:18.843Z,2.53
2022-09-10T13:34:52.043Z,1.80
2022-09-10T13:38:33.492Z,3.53
2022-09-10T13:41:25.024Z,4.80
2022-09-10T13:44:46.699Z,2.33
2022-09-10T13:48:01.827Z,2.67
2022-09-10T13:51:12.897Z,1.70
2022-09-10T13:54:09.284Z,2.28
2022-09-10T13:56:56.297Z,2.53
2022-09-10T13:59:43.122Z,5.57
2022-09-10T14:03:13.015Z,3.28
2022-09-10T14:06:04.281Z,3.40
2022-09-10T14:12:08.040Z,4.05
2022-09-10T14:14:56.965Z,3.08
2022-09-10T14:18:08.315Z,2.20
2022-09-10T14:21:04.242Z,2.90
2022-09-10T14:23:50.460Z,4.53
2022-09-10T14:26:36.673Z,2.90
2022-09-10T14:29:26.167Z,2.72
2022-09-10T14:32:33.381Z,2.25
2022-09-10T14:35:49.414Z,4.22
2022-09-10T14:38:38.167Z,3.15
2022-09-10T14:41:29.684Z,2.85
2022-09-10T14:44:20.346Z,2.40
2022-09-10T14:47:09.309Z,1.88
2022-09-10T14:49:57.203Z,4.80
2022-09-10T14:52:43.113Z,3.00
2022-09-10T14:55:31.083Z,2.80
2022-09-10T14:58:17.002Z,2.03
2022-09-10T15:01:04.015Z,2.22
2022-09-10T15:03:49.729Z,2.55
2022-09-10T15:06:37.222Z,2.60
2022-09-10T15:09:24.978Z,3.72
2022-09-10T15:12:23.090Z,2.83
2022-09-10T15:15:21.847Z,1.95
2022-09-10T15:18:14.609Z,2.10
2022-09-10T15:21:01.678Z,2.60
2022-09-10T15:23:55.733Z,2.38
2022-09-10T15:26:42.723Z,2.63
2022-09-10T15:29:39.234Z,2.28
2022-09-10T15:32:25.307Z,2.40
2022-09-10T15:35:11.360Z,1.92
2022-09-10T15:37:57.755Z,1.67
2022-09-10T15:40:44.189Z,1.60
2022-09-10T15:43:30.122Z,2.00
2022-09-10T15:47:05.341Z,1.88
2022-09-10T15:51:05.472Z,2.47
2022-09-10T15:53:52.816Z,2.47
2022-09-10T15:56:39.754Z,2.10
2022-09-10T15:59:25.592Z,2.28
2022-09-10T16:02:18.858Z,2.80
2022-09-10T16:05:06.039Z,1.90
2022-09-10T16:07:51.981Z,2.70
2022-09-10T16:11:19.408Z,2.67
2022-09-10T16:14:49.074Z,2.50
2022-09-10T16:17:35.367Z,2.70
2022-09-10T16:20:21.638Z,3.00
2022-09-10T16:23:10.815Z,3.75
2022-09-10T16:25:56.729Z,3.00
2022-09-10T16:28:58.530Z,2.88
2022-09-10T16:31:47.205Z,1.75
2022-09-10T16:34:33.212Z,1.67
2022-09-10T16:37:19.454Z,1.50
2022-09-10T16:40:05.974Z,2.30
2022-09-10T16:42:51.685Z,2.35
2022-09-10T16:45:37.435Z,1.55
2022-09-10T16:48:23.148Z,1.73
2022-09-10T16:51:16.661Z,1.58
2022-09-10T16:54:05.651Z,1.60
2022-09-10T16:56:51.493Z,1.50
2022-09-10T16:59:37.330Z,1.90
2022-09-10T17:02:23.420Z,1.60
2022-09-10T17:05:09.864Z,1.67
2022-09-10T17:07:55.540Z,1.88
2022-09-10T17:10:41.510Z,2.20
2022-09-10T17:13:27.249Z,2.83
2022-09-10T17:16:26.370Z,2.60
2022-09-10T17:19:15.049Z,2.35
2022-09-10T17:22:01.051Z,2.70
2022-09-10T17:24:49.349Z,2.83
2022-09-10T17:27:36.358Z,2.80
2022-09-10T17:30:22.260Z,2.88
2022-09-10T17:33:08.266Z,2.90
2022-09-10T17:36:00.214Z,3.13
2022-09-10T17:38:46.242Z,3.33
2022-09-10T17:41:32.270Z,3.20
2022-09-10T17:44:18.285Z,3.47
2022-09-10T17:47:04.331Z,3.38
2022-09-10T17:49:52.179Z,3.30
2022-09-10T17:52:38.172Z,3.38
2022-09-10T17:55:31.731Z,3.20
2022-09-10T17:58:19.560Z,3.30
2022-09-10T18:01:08.704Z,3.80
2022-09-10T18:03:55.655Z,4.25
2022-09-10T18:06:41.623Z,3.75
2022-09-10T18:09:27.806Z,3.15
2022-09-10T18:12:13.959Z,4.25
2022-09-10T18:15:01.144Z,3.85
2022-09-10T18:17:47.169Z,3.85
2022-09-10T18:20:32.882Z,4.00
2022-09-10T18:23:19.415Z,4.22
2022-09-10T18:26:16.404Z,4.30
2022-09-10T18:29:10.487Z,4.13
2022-09-10T18:31:58.257Z,4.20
2022-09-10T18:34:44.423Z,4.43
2022-09-10T18:37:30.327Z,5.43
2022-09-10T18:40:16.170Z,4.60
2022-09-10T18:43:01.959Z,5.40
2022-09-10T18:45:47.829Z,7.80
2022-09-10T18:48:34.541Z,6.22
2022-09-10T18:51:22.493Z,5.75
2022-09-10T18:54:09.619Z,6.25
2022-09-10T18:56:57.298Z,5.22
2022-09-10T18:59:44.150Z,5.53
2022-09-10T19:02:30.131Z,6.03
2022-09-10T19:05:16.277Z,6.00
2022-09-10T19:08:02.745Z,4.65
2022-09-10T19:10:48.635Z,5.28
2022-09-10T19:13:34.578Z,5.60
2022-09-10T19:16:22.766Z,5.00
2022-09-10T19:19:18.660Z,5.45
2022-09-10T19:22:10.640Z,5.03
2022-09-10T19:24:56.672Z,4.95
2022-09-10T19:27:45.108Z,4.55
2022-09-10T19:30:35.632Z,4.07
2022-09-10T19:33:21.457Z,4.90
2022-09-10T19:36:14.379Z,5.07
2022-09-10T19:39:01.798Z,4.88
2022-09-10T19:41:48.937Z,5.60
2022-09-10T19:44:34.659Z,5.82
2022-09-10T19:47:20.967Z,5.45
2022-09-10T19:50:07.224Z,5.88
2022-09-10T19:52:53.774Z,6.80
2022-09-10T19:55:39.944Z,7.65
2022-09-10T19:58:25.875Z,6.40
2022-09-10T20:01:14.294Z,6.90
2022-09-10T20:04:01.765Z,6.30
2022-09-10T20:06:47.772Z,7.55
2022-09-10T20:09:36.778Z,8.70
2022-09-10T20:12:25.811Z,8.48
2022-09-10T20:15:11.759Z,7.78
2022-09-10T20:17:57.929Z,5.97
2022-09-10T20:20:43.817Z,7.18
2022-09-10T20:23:29.621Z,7.70
2022-09-10T20:26:17.911Z,5.80
2022-09-10T20:29:07.880Z,6.43
2022-09-10T20:31:58.651Z,5.93
2022-09-10T20:34:45.294Z,4.88
2022-09-10T20:37:31.312Z,5.25
2022-09-10T20:40:17.401Z,5.32
2022-09-10T20:43:03.244Z,5.55
2022-09-10T20:45:49.401Z,6.28
2022-09-10T20:48:35.214Z,5.55
2022-09-10T20:51:21.430Z,5.72
2022-09-10T20:54:10.846Z,5.32
2022-09-10T20:56:56.744Z,5.70
2022-09-10T20:59:44.112Z,6.10
2022-09-10T21:02:30.122Z,6.80
2022-09-10T21:05:16.403Z,7.57
2022-09-10T21:08:03.537Z,6.50
2022-09-10T21:10:49.842Z,6.22
2022-09-10T21:13:36.471Z,5.28
2022-09-10T21:16:28.393Z,5.78
2022-09-10T21:19:16.165Z,5.75
2022-09-10T21:22:02.914Z,5.45
2022-09-10T21:24:48.717Z,6.35
2022-09-10T21:27:34.477Z,5.95
2022-09-10T21:30:20.299Z,5.97
2022-09-10T21:33:07.182Z,6.15
2022-09-10T21:36:02.844Z,6.35
2022-09-10T21:38:53.333Z,5.88
2022-09-10T21:41:42.500Z,6.28
2022-09-10T21:44:28.460Z,7.00
2022-09-10T21:47:14.431Z,6.65
2022-09-10T21:50:00.602Z,5.82
2022-09-10T21:52:46.558Z,6.03
2022-09-10T21:55:32.675Z,6.25
2022-09-10T21:58:18.466Z,6.25
2022-09-10T22:01:10.089Z,6.05
2022-09-10T22:04:00.579Z,6.00
2022-09-10T22:06:47.055Z,5.70
2022-09-10T22:09:33.826Z,5.70
2022-09-10T22:12:19.603Z,6.80
2022-09-10T22:15:06.794Z,6.40
2022-09-10T22:17:52.656Z,6.07
2022-09-10T22:20:38.338Z,5.47
2022-09-10T22:23:24.249Z,6.03
2022-09-10T22:26:17.949Z,6.70
2022-09-10T22:29:03.843Z,8.85
2022-09-10T22:31:50.212Z,8.15
2022-09-10T22:34:36.636Z,8.52
2022-09-10T22:37:22.601Z,6.97
2022-09-10T22:40:08.446Z,5.82
2022-09-10T22:42:54.525Z,4.88
2022-09-10T22:45:40.203Z,6.65
2022-09-10T22:48:26.016Z,5.90
2022-09-10T22:51:15.672Z,5.55
2022-09-10T22:54:03.887Z,5.25
2022-09-10T22:56:50.577Z,5.63
2022-09-10T22:59:38.000Z,6.35
2022-09-10T23:02:25.545Z,5.80
2022-09-10T23:05:13.239Z,5.05
2022-09-10T23:08:00.568Z,5.82
2022-09-10T23:10:47.736Z,5.30
2022-09-10T23:13:35.251Z,5.28
2022-09-10T23:16:36.767Z,5.45
2022-09-10T23:19:25.892Z,4.97
2022-09-10T23:22:12.906Z,5.38
2022-09-10T23:24:59.422Z,4.65
2022-09-10T23:27:48.735Z,4.95
2022-09-10T23:30:36.764Z,5.22
2022-09-10T23:33:23.506Z,4.88
2022-09-10T23:36:14.407Z,5.20
2022-09-10T23:39:02.672Z,4.90
2022-09-10T23:41:52.026Z,5.45
2022-09-10T23:44:39.020Z,4.85
2022-09-10T23:47:26.525Z,5.00
2022-09-10T23:50:15.284Z,4.78
2022-09-10T23:53:04.772Z,5.25
2022-09-10T23:55:52.508Z,4.88
2022-09-10T23:58:39.332Z,5.10
